Time;durP1;ratioP1;P1;durP2;ratioP2;P2;SDS_P1;SDS_P2;PMS_P1;PMS_P2;Temp;Humidity;BMP_temperature;BMP_pressure;BME280_temperature;BME280_humidity;BME280_pressure;Samples;Min_cycle;Max_cycle;Signal;HPM_P1;HPM_P2
2022/12/09 00:01:20;;;;;;;25.73;16.85;;;;;;;-1.52;75.76;98510.41;6159166;23;20163;-81
2022/12/09 00:03:46;;;;;;;23.17;16.77;;;;;;;-1.48;75.78;98496.53;6157944;23;20198;-81
2022/12/09 00:06:16;;;;;;;23.30;13.60;;;;;;;-1.42;75.79;98495.50;6156711;23;20163;-82
2022/12/09 00:08:44;;;;;;;22.65;13.48;;;;;;;-1.41;75.74;98484.28;6153979;23;20186;-82
2022/12/09 00:11:10;;;;;;;15.65;11.35;;;;;;;-1.40;75.26;98496.28;6157167;23;20397;-82
2022/12/09 00:13:36;;;;;;;19.97;15.30;;;;;;;-1.40;75.70;98498.88;6156728;23;20171;-82
2022/12/09 00:16:10;;;;;;;22.83;14.60;;;;;;;-1.43;75.23;98492.09;6154653;23;20478;-82
2022/12/09 00:18:36;;;;;;;20.63;12.23;;;;;;;-1.41;75.42;98489.44;6153081;23;20403;-82
2022/12/09 00:21:22;;;;;;;20.80;13.67;;;;;;;-1.40;75.67;98483.41;6143156;23;20266;-85
2022/12/09 00:23:49;;;;;;;20.10;11.70;;;;;;;-1.39;75.37;98487.66;6144286;23;20155;-84
2022/12/09 00:26:15;;;;;;;18.20;12.43;;;;;;;-1.38;75.39;98484.19;6159508;23;20178;-84
2022/12/09 00:28:42;;;;;;;21.42;13.30;;;;;;;-1.41;75.47;98487.69;6159705;23;20208;-84
2022/12/09 00:31:09;;;;;;;31.48;17.50;;;;;;;-1.38;75.56;98485.06;6162018;23;20186;-83
2022/12/09 00:33:34;;;;;;;28.85;17.00;;;;;;;-1.33;75.39;98477.16;6162487;23;20464;-84
2022/12/09 00:36:10;;;;;;;30.25;17.20;;;;;;;-1.27;75.86;98481.25;6162816;23;20156;-84
2022/12/09 00:38:36;;;;;;;36.10;18.73;;;;;;;-1.21;75.52;98478.50;6161863;23;20377;-84
2022/12/09 00:41:03;;;;;;;30.85;17.40;;;;;;;-1.14;75.73;98472.22;6162237;23;20185;-84
2022/12/09 00:43:28;;;;;;;24.95;14.68;;;;;;;-1.10;75.19;98478.13;6162386;23;20364;-84
2022/12/09 00:45:53;;;;;;;25.37;16.73;;;;;;;-1.07;75.15;98470.28;6163027;23;20156;-84
2022/12/09 00:48:19;;;;;;;22.20;15.17;;;;;;;-1.08;75.43;98463.44;6160876;23;20152;-83
2022/12/09 00:50:44;;;;;;;28.87;16.67;;;;;;;-1.06;75.33;98464.22;6162300;23;20191;-83
2022/12/09 00:53:10;;;;;;;24.10;15.00;;;;;;;-1.04;75.55;98468.44;6158621;23;20261;-84
2022/12/09 00:55:36;;;;;;;35.03;15.20;;;;;;;-1.05;75.22;98458.16;6159420;23;20159;-84
2022/12/09 00:58:02;;;;;;;25.05;14.93;;;;;;;-1.08;75.60;98468.56;6163893;23;20170;-84
2022/12/09 01:00:28;;;;;;;22.65;14.13;;;;;;;-1.08;75.75;98455.69;6163336;23;20171;-84
2022/12/09 01:02:53;;;;;;;16.87;12.37;;;;;;;-1.05;75.63;98459.03;6164697;23;20152;-84
2022/12/09 01:05:18;;;;;;;24.27;12.87;;;;;;;-1.05;75.60;98455.59;6163788;23;20166;-84
2022/12/09 01:07:44;;;;;;;21.23;12.23;;;;;;;-1.07;75.67;98453.06;6169077;23;20163;-85
2022/12/09 01:10:10;;;;;;;23.27;12.37;;;;;;;-1.09;75.74;98454.03;6162054;23;20202;-84
2022/12/09 01:12:35;;;;;;;26.20;12.17;;;;;;;-1.14;75.78;98455.00;6162716;23;20172;-85
2022/12/09 01:15:02;;;;;;;22.13;12.60;;;;;;;-1.18;75.75;98445.72;6163320;23;20190;-84
2022/12/09 01:17:27;;;;;;;22.50;13.63;;;;;;;-1.20;75.73;98444.09;6163450;23;20159;-85
2022/12/09 01:19:53;;;;;;;21.43;13.87;;;;;;;-1.23;75.90;98447.63;6162187;23;20187;-84
2022/12/09 01:22:18;;;;;;;26.27;13.13;;;;;;;-1.25;76.23;98446.81;6159651;23;20164;-84
2022/12/09 01:24:43;;;;;;;19.93;12.17;;;;;;;-1.28;76.15;98438.38;6163770;23;20147;-84
2022/12/09 01:27:09;;;;;;;21.23;11.60;;;;;;;-1.28;76.25;98446.94;6161997;23;20147;-84
2022/12/09 01:29:34;;;;;;;22.23;15.93;;;;;;;-1.26;76.22;98459.75;6161936;23;20198;-85
2022/12/09 01:32:00;;;;;;;20.53;12.43;;;;;;;-1.26;75.98;98458.03;6162328;23;20159;-84
2022/12/09 01:34:25;;;;;;;24.93;14.07;;;;;;;-1.22;76.29;98461.31;6162905;23;20330;-85
2022/12/09 01:36:51;;;;;;;29.17;13.10;;;;;;;-1.19;76.18;98446.63;6161808;23;20166;-83
2022/12/09 01:39:17;;;;;;;20.37;11.87;;;;;;;-1.17;76.27;98443.97;6160610;23;20391;-84
2022/12/09 01:41:42;;;;;;;31.63;13.20;;;;;;;-1.16;76.12;98435.34;6162087;23;20263;-84
2022/12/09 01:44:22;;;;;;;19.80;10.20;;;;;;;-1.18;76.08;98425.09;6163850;23;20399;-84
2022/12/09 01:46:48;;;;;;;40.55;11.38;;;;;;;-1.22;75.87;98418.38;6163149;23;20268;-84
2022/12/09 01:49:30;;;;;;;26.33;12.10;;;;;;;-1.24;76.02;98420.19;6159750;23;20214;-84
2022/12/09 01:52:17;;;;;;;22.33;11.30;;;;;;;-1.39;76.04;98411.22;6162877;23;20156;-83
2022/12/09 01:54:45;;;;;;;22.88;11.48;;;;;;;-1.44;76.53;98413.13;6162028;23;20163;-84
2022/12/09 01:57:12;;;;;;;34.42;10.48;;;;;;;-1.44;76.18;98417.44;6160614;23;20372;-84
2022/12/09 01:59:38;;;;;;;22.43;11.57;;;;;;;-1.48;76.45;98408.16;6160307;23;20238;-85
2022/12/09 02:02:06;;;;;;;24.40;10.93;;;;;;;-1.49;76.45;98407.28;6161649;23;20159;-84
2022/12/09 02:04:38;;;;;;;22.00;12.63;;;;;;;-1.48;76.88;98413.31;6162429;23;20212;-84
2022/12/09 02:07:09;;;;;;;26.33;11.70;;;;;;;-1.46;76.98;98409.78;6161418;23;20289;-84
2022/12/09 02:09:36;;;;;;;18.23;10.82;;;;;;;-1.42;76.77;98400.19;6159734;23;20482;-84
2022/12/09 02:12:22;;;;;;;26.42;14.52;;;;;;;-1.38;76.64;98391.47;6160989;23;20160;-84
2022/12/09 02:14:59;;;;;;;23.08;11.30;;;;;;;-1.36;76.32;98400.81;6156219;23;20188;-84
2022/12/09 02:17:41;;;;;;;19.35;11.10;;;;;;;-1.38;76.71;98405.22;6148457;23;20584;-84
2022/12/09 02:20:30;;;;;;;15.02;9.32;;;;;;;-1.39;76.92;98389.78;6147382;23;20712;-84
2022/12/09 02:23:06;;;;;;;17.05;9.27;;;;;;;-1.39;76.76;98385.47;6157958;23;20167;-84
2022/12/09 02:25:35;;;;;;;22.67;11.80;;;;;;;-1.37;77.26;98383.69;6160970;23;20156;-83
2022/12/09 02:28:22;;;;;;;20.45;11.10;;;;;;;-1.33;77.01;98387.81;6160964;23;20208;-85
2022/12/09 02:31:08;;;;;;;11.80;9.43;;;;;;;-1.27;76.88;98384.22;6159472;23;20643;-84
2022/12/09 02:34:06;;;;;;;17.35;11.50;;;;;;;-1.24;76.75;98378.97;6159466;23;20178;-83
2022/12/09 02:36:52;;;;;;;17.88;10.07;;;;;;;-1.22;76.43;98369.41;6160263;23;20202;-83
2022/12/09 02:39:24;;;;;;;27.08;10.13;;;;;;;-1.23;76.67;98369.50;6161860;23;20219;-84
2022/12/09 02:41:52;;;;;;;21.67;10.60;;;;;;;-1.24;76.58;98373.81;6160068;23;20264;-83
2022/12/09 02:44:21;;;;;;;14.00;7.93;;;;;;;-1.24;76.67;98373.81;6161583;23;20159;-83
2022/12/09 02:46:48;;;;;;;14.95;8.23;;;;;;;-1.25;76.93;98372.09;6162825;23;20153;-83
2022/12/09 02:49:14;;;;;;;12.10;9.82;;;;;;;-1.23;76.86;98370.31;6159713;23;20185;-84
2022/12/09 02:51:42;;;;;;;20.10;9.60;;;;;;;-1.23;76.54;98360.00;6158807;23;20207;-83
2022/12/09 02:54:14;;;;;;;15.98;9.20;;;;;;;-1.26;76.65;98354.97;6154468;23;20165;-83
2022/12/09 02:56:49;;;;;;;16.75;9.70;;;;;;;-1.25;76.51;98354.06;6158350;23;20196;-83
2022/12/09 02:59:15;;;;;;;15.60;10.13;;;;;;;-1.19;76.84;98361.59;6159646;23;20164;-83
2022/12/09 03:02:27;;;;;;;14.33;7.63;;;;;;;-1.15;76.77;98360.56;6155542;23;20518;-83
2022/12/09 03:05:24;;;;;;;14.77;8.85;;;;;;;-1.16;76.77;98340.88;6150993;23;20213;-83
2022/12/09 03:08:05;;;;;;;8.93;7.93;;;;;;;-1.16;76.16;98330.56;6160926;23;20232;-83
2022/12/09 03:10:55;;;;;;;12.50;7.68;;;;;;;-1.16;76.31;98334.84;6160296;23;20251;-84
2022/12/09 03:13:55;;;;;;;17.98;10.00;;;;;;;-1.15;76.84;98344.28;6151727;23;20182;-83
2022/12/09 03:16:26;;;;;;;17.75;8.85;;;;;;;-1.14;76.88;98336.47;6160389;23;20159;-83
2022/12/09 03:18:59;;;;;;;16.30;9.50;;;;;;;-1.13;76.68;98340.75;6162528;23;20742;-83
2022/12/09 03:21:26;;;;;;;13.23;7.93;;;;;;;-1.16;76.48;98325.41;6161374;23;20231;-83
2022/12/09 03:23:55;;;;;;;12.70;8.50;;;;;;;-1.17;76.30;98328.88;6165993;23;20166;-83
2022/12/09 03:26:21;;;;;;;26.98;8.98;;;;;;;-1.20;76.14;98325.56;6161655;23;20418;-83
2022/12/09 03:28:49;;;;;;;17.08;9.13;;;;;;;-1.23;76.37;98323.13;6161752;23;20232;-83
2022/12/09 03:31:18;;;;;;;12.85;9.10;;;;;;;-1.23;76.35;98330.84;6161268;23;20158;-83
2022/12/09 03:33:49;;;;;;;22.10;10.10;;;;;;;-1.23;76.84;98329.09;6162329;23;20160;-83
2022/12/09 03:36:16;;;;;;;11.68;7.25;;;;;;;-1.22;76.45;98315.31;6159665;23;20361;-85
2022/12/09 03:38:45;;;;;;;17.17;8.02;;;;;;;-1.22;76.48;98309.31;6159389;23;20227;-84
2022/12/09 03:41:26;;;;;;;14.27;9.27;;;;;;;-1.24;76.13;98311.97;6157875;23;20182;-83
2022/12/09 03:43:56;;;;;;;13.65;8.05;;;;;;;-1.26;76.32;98297.47;6163093;23;20171;-85
2022/12/09 03:46:22;;;;;;;14.55;9.27;;;;;;;-1.26;76.47;98298.31;6163502;23;20141;-83
2022/12/09 03:48:48;;;;;;;16.70;9.38;;;;;;;-1.24;76.71;98291.38;6161729;23;20162;-83
2022/12/09 03:51:29;;;;;;;16.40;8.67;;;;;;;-1.24;76.63;98282.78;6162203;23;20259;-84
2022/12/09 03:54:04;;;;;;;10.88;7.40;;;;;;;-1.31;76.49;98289.91;6157235;23;20393;-83
2022/12/09 03:56:38;;;;;;;12.38;8.43;;;;;;;-1.37;76.30;98290.97;6162683;23;20161;-83
2022/12/09 03:59:09;;;;;;;13.73;8.10;;;;;;;-1.38;76.66;98289.31;6148477;23;20209;-83
2022/12/09 04:01:35;;;;;;;12.70;8.50;;;;;;;-1.36;76.64;98281.50;6155280;23;20193;-83
2022/12/09 04:04:00;;;;;;;12.20;7.60;;;;;;;-1.36;76.66;98281.50;6160545;23;20452;-84
2022/12/09 04:06:25;;;;;;;10.33;6.27;;;;;;;-1.38;76.50;98279.00;6158572;23;20594;-84
2022/12/09 04:08:51;;;;;;;9.53;7.17;;;;;;;-1.36;76.52;98274.59;6160558;23;20376;-84
2022/12/09 04:11:17;;;;;;;15.80;9.50;;;;;;;-1.35;76.53;98262.56;6164118;23;20808;-84
2022/12/09 04:13:42;;;;;;;14.53;8.67;;;;;;;-1.36;76.85;98261.72;6161254;23;20166;-84
2022/12/09 04:16:08;;;;;;;19.77;14.67;;;;;;;-1.32;76.85;98257.31;6166993;23;20387;-84
2022/12/09 04:18:34;;;;;;;17.13;9.85;;;;;;;-1.31;77.16;98259.00;6169642;23;20585;-84
2022/12/09 04:21:05;;;;;;;14.90;8.83;;;;;;;-1.29;77.31;98252.06;5748653;23;10000645;-84
2022/12/09 04:23:30;;;;;;;13.02;8.85;;;;;;;-1.24;77.17;98259.59;6163123;23;20196;-85
2022/12/09 04:25:56;;;;;;;18.50;9.90;;;;;;;-1.19;77.04;98253.41;6160323;23;20169;-84
2022/12/09 04:28:21;;;;;;;16.43;8.17;;;;;;;-1.16;77.12;98252.41;6170451;23;20164;-84
2022/12/09 04:30:47;;;;;;;18.13;8.37;;;;;;;-1.16;76.65;98253.28;6170813;23;20191;-84
2022/12/09 04:33:13;;;;;;;15.98;9.35;;;;;;;-1.14;76.73;98243.72;6167539;23;20173;-84
2022/12/09 04:35:38;;;;;;;13.10;8.00;;;;;;;-1.12;76.56;98244.50;6166812;23;20197;-84
2022/12/09 04:38:04;;;;;;;15.77;9.10;;;;;;;-1.13;76.28;98239.44;6168003;23;20163;-84
2022/12/09 04:40:29;;;;;;;14.57;9.23;;;;;;;-1.12;76.37;98233.38;6167107;23;20181;-84
2022/12/09 04:42:55;;;;;;;14.93;9.13;;;;;;;-1.10;76.67;98235.91;6074743;23;20205;-83
2022/12/09 04:45:20;;;;;;;11.10;8.77;;;;;;;-1.08;76.59;98234.09;6081153;23;20805;-84
2022/12/09 04:47:46;;;;;;;16.10;7.67;;;;;;;-1.08;76.47;98228.94;6079534;23;20455;-85
2022/12/09 04:50:11;;;;;;;17.07;8.50;;;;;;;-1.10;76.54;98235.91;6080701;23;20213;-85
2022/12/09 04:52:37;;;;;;;15.60;9.27;;;;;;;-1.09;76.78;98233.25;6078067;23;20236;-85
2022/12/09 04:55:02;;;;;;;13.50;9.03;;;;;;;-1.05;76.52;98229.66;6078575;23;20221;-85
2022/12/09 04:57:28;;;;;;;23.40;12.03;;;;;;;-1.05;76.24;98229.66;6082493;23;20166;-84
2022/12/09 04:59:54;;;;;;;15.90;9.13;;;;;;;-1.07;76.30;98225.47;6080072;23;20221;-85
2022/12/09 05:02:20;;;;;;;10.37;7.83;;;;;;;-1.14;76.58;98223.09;6079182;23;20208;-84
2022/12/09 05:04:45;;;;;;;19.50;10.00;;;;;;;-1.15;76.88;98224.03;6076552;23;20385;-86
2022/12/09 05:07:11;;;;;;;18.00;10.50;;;;;;;-1.17;76.89;98225.81;6082022;23;20273;-85
2022/12/09 05:09:37;;;;;;;15.27;9.63;;;;;;;-1.15;77.07;98233.50;6080621;23;20525;-83
2022/12/09 05:12:03;;;;;;;20.90;9.57;;;;;;;-1.13;76.67;98232.53;6077738;23;20206;-83
2022/12/09 05:14:28;;;;;;;15.33;9.97;;;;;;;-1.11;77.06;98237.63;6078406;23;20198;-86
2022/12/09 05:16:54;;;;;;;17.47;9.27;;;;;;;-1.09;76.55;98235.81;6071817;23;20230;-83
2022/12/09 05:19:19;;;;;;;17.13;9.77;;;;;;;-1.06;77.09;98232.28;6071989;23;20163;-84
2022/12/09 05:21:45;;;;;;;17.70;8.90;;;;;;;-1.07;76.70;98233.19;6075800;23;20287;-83
2022/12/09 05:24:10;;;;;;;16.00;10.83;;;;;;;-1.12;76.88;98234.19;6074222;23;20167;-86
2022/12/09 05:26:36;;;;;;;15.07;9.40;;;;;;;-1.10;76.88;98230.75;6073257;23;20175;-83
2022/12/09 05:29:02;;;;;;;19.93;12.43;;;;;;;-1.06;77.14;98232.28;6074999;23;20167;-85
2022/12/09 05:31:27;;;;;;;18.75;10.52;;;;;;;-1.05;77.04;98229.66;6078037;23;20229;-86
2022/12/09 05:33:53;;;;;;;14.33;9.80;;;;;;;-1.02;76.83;98239.03;6076167;23;20174;-85
2022/12/09 05:36:22;;;;;;;20.60;12.43;;;;;;;-1.03;77.08;98232.16;6077836;23;20614;-85
2022/12/09 05:38:50;;;;;;;19.80;10.07;;;;;;;-1.04;76.55;98236.50;6078107;23;20166;-84
2022/12/09 05:41:17;;;;;;;18.38;11.70;;;;;;;-1.04;76.97;98230.50;6077428;23;20695;-82
2022/12/09 05:43:42;;;;;;;21.60;10.50;;;;;;;-1.00;76.95;98232.03;6074612;23;20163;-84
2022/12/09 05:46:09;;;;;;;20.17;11.20;;;;;;;-0.97;76.97;98226.81;6068773;23;20216;-84
2022/12/09 05:48:35;;;;;;;14.23;9.73;;;;;;;-0.92;77.12;98227.44;6084979;23;20234;-85
2022/12/09 05:51:06;;;;;;;19.50;10.00;;;;;;;-0.90;76.81;98231.63;6083329;23;20186;-84
2022/12/09 05:53:32;;;;;;;20.95;9.85;;;;;;;-0.86;76.93;98224.63;6070902;23;20189;-83
2022/12/09 05:55:57;;;;;;;15.95;8.30;;;;;;;-0.81;76.82;98227.00;6073657;23;20388;-84
2022/12/09 05:58:23;;;;;;;19.13;9.53;;;;;;;-0.77;76.91;98221.69;6074031;23;20246;-86
2022/12/09 06:00:49;;;;;;;15.83;9.13;;;;;;;-0.73;77.00;98222.38;6072859;23;20260;-83
2022/12/09 06:03:14;;;;;;;19.30;11.57;;;;;;;-0.71;76.61;98218.84;6072931;23;20143;-84
2022/12/09 06:05:40;;;;;;;21.67;10.17;;;;;;;-0.68;76.65;98213.56;6070427;23;20391;-84
2022/12/09 06:08:06;;;;;;;19.95;10.52;;;;;;;-0.68;76.73;98220.47;6068081;23;20175;-85
2022/12/09 06:10:32;;;;;;;22.95;12.80;;;;;;;-0.68;76.64;98223.03;6094223;23;20198;-84
2022/12/09 06:12:57;;;;;;;20.43;11.40;;;;;;;-0.69;76.53;98221.38;6073742;23;20441;-84
2022/12/09 06:15:23;;;;;;;19.57;10.13;;;;;;;-0.70;76.46;98211.97;6070501;23;20177;-86
2022/12/09 06:17:49;;;;;;;16.70;9.57;;;;;;;-0.68;76.65;98221.28;6069978;23;20171;-84
2022/12/09 06:20:15;;;;;;;19.73;10.10;;;;;;;-0.68;76.56;98223.88;6072165;23;20486;-85
2022/12/09 06:22:41;;;;;;;16.15;10.60;;;;;;;-0.68;76.64;98217.88;6071422;23;20195;-84
2022/12/09 06:25:07;;;;;;;19.33;11.00;;;;;;;-0.68;76.78;98216.13;6073623;23;20631;-84
2022/12/09 06:27:32;;;;;;;22.07;14.33;;;;;;;-0.66;76.56;98200.63;6074883;23;20157;-84
2022/12/09 06:29:58;;;;;;;22.77;12.87;;;;;;;-0.65;76.62;98212.59;6094472;23;20195;-84
2022/12/09 06:32:23;;;;;;;18.93;10.40;;;;;;;-0.64;76.81;98205.72;6074448;23;20202;-84
2022/12/09 06:34:49;;;;;;;20.97;11.67;;;;;;;-0.62;76.55;98209.06;6074673;23;20483;-84
2022/12/09 06:37:15;;;;;;;13.03;8.97;;;;;;;-0.62;76.69;98198.75;6072004;23;20181;-84
2022/12/09 06:39:40;;;;;;;15.65;10.15;;;;;;;-0.64;76.57;98198.81;6074187;23;20221;-84
2022/12/09 06:42:06;;;;;;;15.63;10.70;;;;;;;-0.68;76.54;98194.69;6076884;23;20382;-84
2022/12/09 06:44:31;;;;;;;20.43;11.63;;;;;;;-0.71;76.98;98205.94;6077228;23;20167;-83
2022/12/09 06:46:57;;;;;;;23.60;13.50;;;;;;;-0.75;76.56;98201.00;6075256;23;20575;-85
2022/12/09 06:49:23;;;;;;;17.60;11.47;;;;;;;-0.74;76.85;98197.50;6073267;23;20445;-84
2022/12/09 06:51:48;;;;;;;22.20;9.40;;;;;;;-0.71;77.14;98193.06;6076740;23;20941;-84
2022/12/09 06:54:14;;;;;;;18.60;9.10;;;;;;;-0.70;76.67;98191.34;6076710;23;20170;-84
2022/12/09 06:56:39;;;;;;;12.83;9.50;;;;;;;-0.68;76.76;98194.69;6074269;23;20173;-86
2022/12/09 06:59:07;;;;;;;20.40;12.00;;;;;;;-0.67;76.70;98188.63;6070534;23;20174;-85
2022/12/09 07:01:32;;;;;;;15.80;9.40;;;;;;;-0.68;76.68;98187.78;6076852;23;20158;-84
2022/12/09 07:03:58;;;;;;;22.80;13.13;;;;;;;-0.68;76.80;98177.47;6074948;23;20379;-84
2022/12/09 07:06:33;;;;;;;25.03;11.27;;;;;;;-0.63;76.90;98184.19;6071027;23;20262;-84
2022/12/09 07:09:04;;;;;;;20.50;11.40;;;;;;;-0.60;76.73;98184.06;6073098;23;20171;-85
2022/12/09 07:11:29;;;;;;;16.10;10.05;;;;;;;-0.56;76.73;98185.63;6072410;23;20178;-85
2022/12/09 07:13:55;;;;;;;16.17;11.77;;;;;;;-0.51;76.71;98186.28;6072176;23;20167;-85
2022/12/09 07:16:20;;;;;;;20.90;10.73;;;;;;;-0.53;76.36;98185.50;6073145;23;20242;-84
2022/12/09 07:18:46;;;;;;;18.17;10.27;;;;;;;-0.58;76.57;98184.84;6071525;23;20167;-84
2022/12/09 07:21:16;;;;;;;19.30;9.37;;;;;;;-0.64;76.48;98193.66;6074165;23;20254;-85
2022/12/09 07:23:41;;;;;;;20.58;12.30;;;;;;;-0.65;76.55;98196.28;6073900;23;20258;-84
2022/12/09 07:26:07;;;;;;;19.67;10.63;;;;;;;-0.67;76.76;98204.94;6071836;23;20183;-84
2022/12/09 07:28:34;;;;;;;20.57;11.67;;;;;;;-0.63;76.92;98199.66;6095747;23;20418;-85
2022/12/09 07:31:00;;;;;;;18.95;11.20;;;;;;;-0.58;76.96;98197.72;6068631;23;20677;-85
2022/12/09 07:33:26;;;;;;;17.97;9.10;;;;;;;-0.55;76.78;98188.13;6069037;23;20300;-85
2022/12/09 07:35:55;;;;;;;17.87;10.47;;;;;;;-0.50;76.89;98195.66;6077557;23;20165;-85
2022/12/09 07:38:22;;;;;;;15.75;11.35;;;;;;;-0.50;76.57;98195.66;6077866;23;20166;-85
2022/12/09 07:40:49;;;;;;;16.92;11.07;;;;;;;-0.54;76.58;98196.69;6073173;23;20183;-85
2022/12/09 07:43:14;;;;;;;14.43;9.75;;;;;;;-0.56;76.51;98190.78;6072677;23;20175;-85
2022/12/09 07:45:40;;;;;;;20.43;12.00;;;;;;;-0.56;76.84;98185.63;6073035;23;20188;-85
2022/12/09 07:48:07;;;;;;;20.23;9.80;;;;;;;-0.55;76.68;98195.03;6072512;23;20169;-85
2022/12/09 07:50:33;;;;;;;16.52;10.82;;;;;;;-0.52;76.82;98189.72;6070880;23;20200;-85
2022/12/09 07:52:59;;;;;;;16.35;9.55;;;;;;;-0.51;76.59;98196.59;6070767;23;20176;-85
2022/12/09 07:55:24;;;;;;;11.90;9.20;;;;;;;-0.48;76.84;98192.13;6073141;23;20173;-85
2022/12/09 07:57:50;;;;;;;19.83;9.67;;;;;;;-0.43;76.84;98186.78;6074282;23;20183;-85
2022/12/09 08:00:16;;;;;;;18.10;13.07;;;;;;;-0.40;76.66;98184.06;6076462;23;20192;-84
2022/12/09 08:02:41;;;;;;;22.37;11.20;;;;;;;-0.38;76.78;98189.97;6074342;23;20191;-84
2022/12/09 08:05:07;;;;;;;19.60;11.43;;;;;;;-0.39;76.52;98175.41;6073422;23;20406;-85
2022/12/09 08:07:32;;;;;;;16.60;10.63;;;;;;;-0.36;76.59;98183.03;6074838;23;20205;-85
2022/12/09 08:09:58;;;;;;;20.07;11.87;;;;;;;-0.30;76.82;98195.69;6073843;23;20422;-85
2022/12/09 08:12:23;;;;;;;15.97;9.50;;;;;;;-0.28;76.46;98186.13;6076859;23;20189;-84
2022/12/09 08:14:49;;;;;;;18.83;10.40;;;;;;;-0.26;76.59;98184.31;6068783;23;20176;-84
2022/12/09 08:17:15;;;;;;;17.43;10.77;;;;;;;-0.20;76.50;98184.97;6071493;23;20209;-85
2022/12/09 08:19:41;;;;;;;21.25;10.75;;;;;;;-0.14;76.34;98177.78;6078086;23;20203;-85
2022/12/09 08:22:06;;;;;;;15.80;8.43;;;;;;;-0.09;76.35;98180.19;6077401;23;20239;-85
2022/12/09 08:24:31;;;;;;;21.67;10.40;;;;;;;-0.04;76.38;98173.06;6078488;23;20175;-84
2022/12/09 08:26:57;;;;;;;15.87;10.67;;;;;;;0.01;76.20;98168.56;6067553;23;20493;-85
2022/12/09 08:29:22;;;;;;;15.43;11.57;;;;;;;0.06;76.16;98168.34;6079095;23;20189;-84
2022/12/09 08:31:48;;;;;;;25.87;11.87;;;;;;;0.10;75.77;98173.28;6076608;23;20185;-85
2022/12/09 08:34:14;;;;;;;17.47;10.00;;;;;;;0.14;75.86;98177.44;6077918;23;20399;-85
2022/12/09 08:36:40;;;;;;;18.63;10.52;;;;;;;0.19;75.66;98166.91;6076910;23;20176;-85
2022/12/09 08:39:05;;;;;;;16.90;11.30;;;;;;;0.20;75.43;98166.81;6076266;23;20153;-85
2022/12/09 08:41:34;;;;;;;18.90;9.70;;;;;;;0.20;75.51;98161.66;6077687;23;20168;-86
2022/12/09 08:44:05;;;;;;;25.23;11.00;;;;;;;0.22;75.47;98169.34;6077839;23;20157;-86
2022/12/09 08:46:32;;;;;;;18.20;10.38;;;;;;;0.21;75.25;98173.66;6076796;23;20290;-85
2022/12/09 08:48:57;;;;;;;17.25;10.73;;;;;;;0.21;75.40;98183.16;6078237;23;20201;-86
2022/12/09 08:51:23;;;;;;;19.27;11.87;;;;;;;0.24;75.57;98180.44;6079635;23;20182;-86
2022/12/09 08:53:48;;;;;;;18.13;11.60;;;;;;;0.28;75.54;98178.56;6081093;23;20179;-86
2022/12/09 08:56:14;;;;;;;19.80;10.60;;;;;;;0.30;75.94;98175.00;6080251;23;20173;-86
2022/12/09 08:58:40;;;;;;;17.13;11.07;;;;;;;0.34;75.58;98170.53;6079717;23;20579;-86
2022/12/09 09:03:48;;;;;;;19.90;11.30;;;;;;;0.29;75.01;98175.91;6070026;23;20181;-86
2022/12/09 09:06:15;;;;;;;18.13;10.00;;;;;;;0.28;75.58;98176.81;6071164;23;20170;-86
2022/12/09 09:08:41;;;;;;;19.30;10.73;;;;;;;0.31;75.47;98178.41;6072530;23;20189;-86
2022/12/09 09:11:11;;;;;;;18.23;11.00;;;;;;;0.32;75.55;98165.44;6072284;23;20200;-86
2022/12/09 09:13:39;;;;;;;20.17;11.20;;;;;;;0.36;75.71;98166.13;6066707;23;20773;-86
2022/12/09 09:16:09;;;;;;;12.85;9.43;;;;;;;0.36;75.25;98181.63;6075022;23;20185;-86
2022/12/09 09:18:35;;;;;;;20.15;12.15;;;;;;;0.37;75.14;98183.31;6077638;23;20171;-86
2022/12/09 09:21:00;;;;;;;16.67;10.13;;;;;;;0.34;75.37;98179.09;6076118;23;20378;-85
2022/12/09 09:23:26;;;;;;;22.13;10.90;;;;;;;0.39;75.25;98178.91;6076888;23;20417;-85
2022/12/09 09:25:51;;;;;;;19.43;10.13;;;;;;;0.38;75.17;98174.66;6077318;23;20173;-85
2022/12/09 09:28:16;;;;;;;14.73;9.23;;;;;;;0.37;75.29;98181.56;6076745;23;20415;-86
2022/12/09 09:30:42;;;;;;;15.10;10.10;;;;;;;0.38;75.46;98187.59;6075518;23;20204;-86
2022/12/09 09:33:07;;;;;;;17.33;10.70;;;;;;;0.39;75.47;98187.50;6077512;23;20160;-85
2022/12/09 09:35:33;;;;;;;16.70;12.37;;;;;;;0.42;75.37;98192.50;6078486;23;20164;-86
2022/12/09 09:37:58;;;;;;;16.40;11.67;;;;;;;0.48;75.41;98196.56;6080952;23;20162;-87
2022/12/09 09:40:32;;;;;;;17.17;10.30;;;;;;;0.54;75.31;98201.47;6077677;23;20178;-86
2022/12/09 09:42:59;;;;;;;18.75;11.15;;;;;;;0.59;75.22;98203.81;6101555;23;20174;-86
2022/12/09 09:45:24;;;;;;;21.35;11.48;;;;;;;0.64;75.15;98197.53;6080626;23;20167;-86
2022/12/09 09:47:58;;;;;;;15.67;11.30;;;;;;;0.69;75.10;98184.41;6079125;23;20167;-86
2022/12/09 09:50:36;;;;;;;20.70;11.95;;;;;;;0.70;74.92;98174.91;6066711;23;20856;-85
2022/12/09 09:53:12;;;;;;;20.55;11.32;;;;;;;0.66;74.86;98176.81;6064123;23;20236;-85
2022/12/09 09:55:55;;;;;;;21.13;11.27;;;;;;;0.63;74.91;98176.97;6064639;23;20175;-86
2022/12/09 09:58:42;;;;;;;14.90;11.15;;;;;;;0.65;75.15;98169.97;6065472;23;20692;-86
2022/12/09 10:01:11;;;;;;;13.85;10.80;;;;;;;0.66;75.00;98163.88;6065054;23;20202;-85
2022/12/09 10:04:03;;;;;;;15.38;11.18;;;;;;;0.69;74.94;98157.75;6063595;23;20206;-86
2022/12/09 10:06:41;;;;;;;14.43;9.98;;;;;;;0.73;75.01;98148.91;6088229;23;20651;-87
2022/12/09 10:09:31;;;;;;;16.42;10.95;;;;;;;0.74;74.76;98155.78;6064670;23;20167;-85
2022/12/09 10:12:02;;;;;;;16.13;11.30;;;;;;;0.75;74.82;98157.44;6088340;23;20386;-86
2022/12/09 10:14:35;;;;;;;16.27;10.38;;;;;;;0.78;74.93;98158.13;6069697;23;20198;-86
2022/12/09 10:17:24;;;;;;;24.67;12.95;;;;;;;0.75;74.65;98144.53;6067340;23;20173;-86
2022/12/09 10:19:57;;;;;;;19.65;11.57;;;;;;;0.75;74.71;98150.53;6066255;23;20197;-86
2022/12/09 10:22:30;;;;;;;25.13;12.55;;;;;;;0.75;74.99;98139.34;6067232;23;20228;-85
2022/12/09 10:24:58;;;;;;;18.10;12.52;;;;;;;0.78;74.85;98141.78;6068262;23;20226;-86
2022/12/09 10:27:32;;;;;;;19.95;12.43;;;;;;;0.81;74.92;98142.50;6066307;23;20172;-85
2022/12/09 10:30:12;;;;;;;21.38;13.40;;;;;;;0.88;74.86;98140.44;6064860;23;20210;-85
2022/12/09 10:32:38;;;;;;;15.05;11.90;;;;;;;0.95;74.88;98135.84;6089144;23;20167;-86
2022/12/09 10:35:14;;;;;;;18.57;10.70;;;;;;;0.99;74.64;98132.19;6065977;23;20229;-86
2022/12/09 10:37:40;;;;;;;26.60;13.82;;;;;;;1.00;74.81;98132.13;6065967;23;20190;-85
2022/12/09 10:40:08;;;;;;;23.57;13.60;;;;;;;1.01;74.67;98138.94;6065768;23;20230;-86
2022/12/09 10:45:29;;;;;;;27.45;13.30;;;;;;;0.99;74.77;98114.91;6064433;23;20161;-86
2022/12/09 10:47:54;;;;;;;27.95;16.13;;;;;;;1.04;74.98;98118.13;6062136;23;20168;-85
2022/12/09 10:50:34;;;;;;;25.63;16.03;;;;;;;1.09;74.86;98116.13;6066612;23;20563;-84
2022/12/09 10:53:10;;;;;;;24.08;13.77;;;;;;;1.13;74.63;98110.81;6064672;23;20210;-86
2022/12/09 10:55:39;;;;;;;23.35;15.07;;;;;;;1.13;74.82;98116.00;6063193;23;20267;-85
2022/12/09 10:58:16;;;;;;;24.60;15.27;;;;;;;1.16;74.87;98108.94;6052152;23;20671;-86
2022/12/09 11:00:57;;;;;;;25.08;13.98;;;;;;;1.20;74.78;98110.44;6036766;23;20179;-86
2022/12/09 11:03:27;;;;;;;28.67;17.73;;;;;;;1.21;74.88;98106.09;6064120;23;20159;-85
2022/12/09 11:05:59;;;;;;;22.92;15.02;;;;;;;1.24;74.81;98111.13;6064943;23;20432;-86
2022/12/09 11:08:25;;;;;;;22.27;13.55;;;;;;;1.27;74.71;98110.97;6064936;23;20176;-85
2022/12/09 11:10:51;;;;;;;23.80;16.90;;;;;;;1.27;74.85;98103.19;6064781;23;20212;-85
2022/12/09 11:13:18;;;;;;;27.50;16.57;;;;;;;1.27;74.79;98098.88;6039141;23;20487;-85
2022/12/09 11:15:50;;;;;;;24.52;14.70;;;;;;;1.27;74.84;98087.69;6064615;23;20873;-85
2022/12/09 11:18:18;;;;;;;28.17;16.90;;;;;;;1.29;74.72;98084.09;6065587;23;20649;-85
2022/12/09 11:20:58;;;;;;;29.10;16.20;;;;;;;1.31;74.88;98084.88;6064538;23;20182;-85
2022/12/09 11:23:24;;;;;;;29.45;14.75;;;;;;;1.35;74.81;98084.72;6063416;23;20174;-85
2022/12/09 11:25:56;;;;;;;31.43;17.07;;;;;;;1.36;74.97;98076.88;6063745;23;20188;-86
2022/12/09 11:28:36;;;;;;;33.38;21.33;;;;;;;1.37;74.76;98075.97;6063798;23;20396;-85
2022/12/09 11:31:20;;;;;;;28.95;17.48;;;;;;;1.38;74.80;98088.00;6063735;23;20706;-85
2022/12/09 11:34:01;;;;;;;33.50;20.00;;;;;;;1.41;74.76;98080.06;6061280;23;20957;-85
2022/12/09 11:36:30;;;;;;;30.42;15.80;;;;;;;1.44;74.80;98092.84;6061214;23;20177;-86